RYR215 LIMC-LOWW
Flight info
| Callsign | RYR215 |
|---|---|
| Flight time | N/A |
| Altitude | 34000 |
| Route | OSKOR DCT NESTI DCT ARALD/N0425F330 DCT ABTAN ABTAN2W |
| Aircraft | B738/M-SDE2E3FGHIRWXY/LB1 |
Departure
| Time | N/A |
|---|---|
| Airport | Milan Malpensa International Airport (LIMC) |
Arrival
| Time | 2026-05-06 19:33 |
|---|---|
| Airport | Vienna International Airport (LOWW) |
| Time | Latitude | Longitude | Altitude | Speed | Heading |
|---|---|---|---|---|---|
| 2026-05-06 18:26 | 45.64868 | 9.75983 | 21113 ft | 339 kts | 95° |
| 2026-05-06 18:26 | 45.64877 | 9.79366 | 21500 ft | 342 kts | 95° |
| 2026-05-06 18:27 | 45.64883 | 9.82777 | 21824 ft | 346 kts | 95° |
| 2026-05-06 18:27 | 45.64887 | 9.86267 | 21994 ft | 355 kts | 95° |
| 2026-05-06 18:27 | 45.64891 | 9.89815 | 22380 ft | 358 kts | 95° |
| 2026-05-06 18:27 | 45.64896 | 9.93378 | 22798 ft | 359 kts | 96° |
| 2026-05-06 18:28 | 45.64900 | 9.96961 | 23164 ft | 362 kts | 96° |
| 2026-05-06 18:28 | 45.64902 | 10.00576 | 23480 ft | 365 kts | 96° |
| 2026-05-06 18:28 | 45.64903 | 10.04219 | 23794 ft | 367 kts | 96° |
| 2026-05-06 18:28 | 45.64902 | 10.07877 | 24098 ft | 368 kts | 96° |
| 2026-05-06 18:29 | 45.65199 | 10.11553 | 24350 ft | 381 kts | 76° |
| 2026-05-06 18:29 | 45.66400 | 10.14963 | 24627 ft | 388 kts | 57° |
| 2026-05-06 18:29 | 45.67969 | 10.18113 | 24925 ft | 390 kts | 55° |
| 2026-05-06 18:29 | 45.69585 | 10.21232 | 25217 ft | 392 kts | 54° |
| 2026-05-06 18:30 | 45.71213 | 10.24380 | 25405 ft | 397 kts | 55° |
| 2026-05-06 18:30 | 45.72861 | 10.27610 | 25512 ft | 405 kts | 56° |
| 2026-05-06 18:30 | 45.74511 | 10.30873 | 25838 ft | 404 kts | 56° |
| 2026-05-06 18:30 | 45.76148 | 10.34150 | 26132 ft | 406 kts | 56° |
| 2026-05-06 18:31 | 45.77796 | 10.37461 | 26405 ft | 409 kts | 57° |
| 2026-05-06 18:31 | 45.79447 | 10.40782 | 26638 ft | 411 kts | 56° |
| 2026-05-06 18:31 | 45.81005 | 10.44223 | 26883 ft | 411 kts | 65° |
| 2026-05-06 18:31 | 45.82275 | 10.47902 | 27115 ft | 410 kts | 69° |
| 2026-05-06 18:32 | 45.83467 | 10.51617 | 27371 ft | 412 kts | 70° |
| 2026-05-06 18:32 | 45.84649 | 10.55380 | 27592 ft | 415 kts | 70° |
| 2026-05-06 18:32 | 45.85840 | 10.59163 | 27867 ft | 417 kts | 70° |
| 2026-05-06 18:32 | 45.87043 | 10.62951 | 28129 ft | 418 kts | 70° |
| 2026-05-06 18:33 | 45.88259 | 10.66751 | 28406 ft | 419 kts | 70° |
| 2026-05-06 18:33 | 45.89483 | 10.70556 | 28588 ft | 421 kts | 69° |
| 2026-05-06 18:33 | 45.90699 | 10.74324 | 28830 ft | 422 kts | 70° |
| 2026-05-06 18:33 | 45.91938 | 10.78157 | 29058 ft | 424 kts | 70° |
| 2026-05-06 18:34 | 45.93181 | 10.82006 | 29233 ft | 426 kts | 70° |
| 2026-05-06 18:34 | 45.94430 | 10.85879 | 29441 ft | 428 kts | 70° |
| 2026-05-06 18:34 | 45.95684 | 10.89769 | 29665 ft | 430 kts | 70° |
| 2026-05-06 18:34 | 45.96937 | 10.93663 | 29883 ft | 431 kts | 70° |
| 2026-05-06 18:35 | 45.98199 | 10.97594 | 30062 ft | 433 kts | 70° |
| 2026-05-06 18:35 | 45.99459 | 11.01521 | 30252 ft | 434 kts | 70° |
| 2026-05-06 18:35 | 46.00725 | 11.05464 | 30404 ft | 435 kts | 70° |
| 2026-05-06 18:35 | 46.01991 | 11.09417 | 30563 ft | 435 kts | 70° |
| 2026-05-06 18:36 | 46.03254 | 11.13379 | 30720 ft | 436 kts | 70° |
| 2026-05-06 18:36 | 46.04515 | 11.17343 | 30884 ft | 435 kts | 70° |
| 2026-05-06 18:36 | 46.05775 | 11.21306 | 31092 ft | 435 kts | 70° |
| 2026-05-06 18:36 | 46.07035 | 11.25275 | 31237 ft | 436 kts | 70° |
| 2026-05-06 18:37 | 46.08297 | 11.29257 | 31381 ft | 438 kts | 70° |
| 2026-05-06 18:37 | 46.09132 | 11.31893 | 31471 ft | 438 kts | 70° |
| 2026-05-06 18:37 | 46.10824 | 11.37245 | 31687 ft | 439 kts | 70° |
| 2026-05-06 18:37 | 46.12088 | 11.41248 | 31831 ft | 439 kts | 70° |
| 2026-05-06 18:38 | 46.13352 | 11.45254 | 31972 ft | 440 kts | 70° |
| 2026-05-06 18:38 | 46.14618 | 11.49274 | 32120 ft | 440 kts | 70° |
| 2026-05-06 18:38 | 46.15883 | 11.53303 | 32244 ft | 442 kts | 70° |
| 2026-05-06 18:38 | 46.17149 | 11.57342 | 32375 ft | 442 kts | 70° |
| 2026-05-06 18:39 | 46.18414 | 11.61384 | 32511 ft | 442 kts | 70° |
| 2026-05-06 18:39 | 46.19679 | 11.65427 | 32586 ft | 442 kts | 70° |
| 2026-05-06 18:40 | 46.23471 | 11.77602 | 32805 ft | 445 kts | 70° |
| 2026-05-06 18:40 | 46.25992 | 11.85718 | 33055 ft | 445 kts | 70° |
| 2026-05-06 18:41 | 46.28524 | 11.93896 | 33173 ft | 445 kts | 70° |
| 2026-05-06 18:41 | 46.31007 | 12.02105 | 33326 ft | 447 kts | 70° |
| 2026-05-06 18:41 | 46.32282 | 12.06205 | 33469 ft | 447 kts | 70° |
| 2026-05-06 18:42 | 46.33126 | 12.08918 | 33524 ft | 447 kts | 70° |
| 2026-05-06 18:42 | 46.34397 | 12.13015 | 33669 ft | 445 kts | 70° |
| 2026-05-06 18:42 | 46.35657 | 12.17101 | 33796 ft | 444 kts | 70° |
| 2026-05-06 18:42 | 46.36910 | 12.21181 | 33898 ft | 444 kts | 70° |
| 2026-05-06 18:43 | 46.38161 | 12.25273 | 33906 ft | 445 kts | 70° |
| 2026-05-06 18:43 | 46.40668 | 12.33505 | 33907 ft | 446 kts | 70° |
| 2026-05-06 18:44 | 46.43163 | 12.41719 | 33930 ft | 446 kts | 70° |
| 2026-05-06 18:44 | 46.45638 | 12.49975 | 33922 ft | 445 kts | 71° |
| 2026-05-06 18:45 | 46.48121 | 12.58227 | 33880 ft | 448 kts | 70° |
| 2026-05-06 18:45 | 46.50611 | 12.66438 | 33933 ft | 448 kts | 70° |
| 2026-05-06 18:46 | 46.53107 | 12.74743 | 33960 ft | 449 kts | 70° |
| 2026-05-06 18:46 | 46.55602 | 12.83090 | 33918 ft | 451 kts | 70° |
| 2026-05-06 18:47 | 46.58091 | 12.91452 | 33928 ft | 452 kts | 70° |
| 2026-05-06 18:47 | 46.60580 | 12.99846 | 33931 ft | 452 kts | 70° |
| 2026-05-06 18:48 | 46.63059 | 13.08232 | 33912 ft | 447 kts | 70° |
| 2026-05-06 18:48 | 46.65497 | 13.16504 | 33924 ft | 443 kts | 70° |
| 2026-05-06 18:49 | 46.67914 | 13.24732 | 33901 ft | 440 kts | 70° |
| 2026-05-06 18:49 | 46.70544 | 13.32762 | 33911 ft | 439 kts | 65° |
| 2026-05-06 18:50 | 46.73405 | 13.40645 | 33913 ft | 441 kts | 65° |
| 2026-05-06 18:50 | 46.76274 | 13.48574 | 33887 ft | 442 kts | 65° |
| 2026-05-06 18:51 | 46.79085 | 13.56470 | 33885 ft | 441 kts | 64° |
| 2026-05-06 18:51 | 46.81909 | 13.64473 | 33901 ft | 441 kts | 65° |
| 2026-05-06 18:52 | 46.84712 | 13.72450 | 33905 ft | 441 kts | 65° |
| 2026-05-06 18:52 | 46.87492 | 13.80381 | 33911 ft | 442 kts | 65° |
| 2026-05-06 18:53 | 46.90286 | 13.88376 | 33870 ft | 440 kts | 65° |
| 2026-05-06 18:53 | 46.91647 | 13.92361 | 33575 ft | 435 kts | 69° |
| 2026-05-06 18:53 | 46.92705 | 13.96455 | 33288 ft | 426 kts | 75° |
| 2026-05-06 18:53 | 46.93620 | 14.00543 | 33006 ft | 420 kts | 76° |
| 2026-05-06 18:54 | 46.94487 | 14.04596 | 32700 ft | 415 kts | 76° |
| 2026-05-06 18:54 | 46.95344 | 14.08606 | 32431 ft | 411 kts | 75° |
| 2026-05-06 18:54 | 46.96198 | 14.12588 | 32003 ft | 412 kts | 75° |
| 2026-05-06 18:54 | 46.97070 | 14.16613 | 31383 ft | 415 kts | 75° |
| 2026-05-06 18:55 | 46.97950 | 14.20622 | 30871 ft | 411 kts | 75° |
| 2026-05-06 18:55 | 46.98823 | 14.24573 | 30387 ft | 407 kts | 75° |
| 2026-05-06 18:55 | 46.99692 | 14.28502 | 29892 ft | 404 kts | 75° |
| 2026-05-06 18:55 | 47.00545 | 14.32354 | 29340 ft | 402 kts | 75° |
| 2026-05-06 18:56 | 47.01405 | 14.36241 | 28801 ft | 399 kts | 74° |
| 2026-05-06 18:56 | 47.02256 | 14.40088 | 28277 ft | 395 kts | 75° |
| 2026-05-06 18:56 | 47.03097 | 14.43905 | 27751 ft | 392 kts | 75° |
| 2026-05-06 18:56 | 47.03930 | 14.47692 | 27343 ft | 387 kts | 75° |
| 2026-05-06 18:57 | 47.04742 | 14.51384 | 27131 ft | 375 kts | 75° |
| 2026-05-06 18:57 | 47.05533 | 14.54994 | 26770 ft | 372 kts | 74° |
| 2026-05-06 18:57 | 47.06325 | 14.58619 | 26252 ft | 375 kts | 74° |
| 2026-05-06 18:57 | 47.07120 | 14.62265 | 25753 ft | 375 kts | 74° |
| 2026-05-06 18:58 | 47.07910 | 14.65892 | 25280 ft | 372 kts | 74° |
| 2026-05-06 18:58 | 47.08695 | 14.69499 | 24798 ft | 370 kts | 74° |
| 2026-05-06 18:58 | 47.09475 | 14.73086 | 24325 ft | 367 kts | 74° |
| 2026-05-06 18:58 | 47.10244 | 14.76634 | 23852 ft | 362 kts | 74° |
| 2026-05-06 18:59 | 47.10999 | 14.80118 | 23349 ft | 355 kts | 74° |
| 2026-05-06 18:59 | 47.11739 | 14.83537 | 22797 ft | 348 kts | 74° |
| 2026-05-06 18:59 | 47.12466 | 14.86908 | 22296 ft | 347 kts | 74° |
| 2026-05-06 18:59 | 47.13193 | 14.90287 | 21741 ft | 346 kts | 74° |
| 2026-05-06 19:00 | 47.13914 | 14.93644 | 21241 ft | 343 kts | 75° |
| 2026-05-06 19:00 | 47.14623 | 14.96976 | 20724 ft | 342 kts | 75° |
| 2026-05-06 19:00 | 47.15336 | 15.00298 | 20232 ft | 340 kts | 75° |
| 2026-05-06 19:00 | 47.16047 | 15.03608 | 19737 ft | 339 kts | 75° |
| 2026-05-06 19:01 | 47.16753 | 15.06907 | 19266 ft | 338 kts | 75° |
| 2026-05-06 19:01 | 47.17456 | 15.10199 | 18796 ft | 337 kts | 75° |
| 2026-05-06 19:01 | 47.18155 | 15.13474 | 18444 ft | 332 kts | 75° |
| 2026-05-06 19:01 | 47.18821 | 15.16592 | 18360 ft | 318 kts | 75° |
| 2026-05-06 19:02 | 47.19478 | 15.19681 | 18266 ft | 317 kts | 75° |
| 2026-05-06 19:02 | 47.20144 | 15.22803 | 18155 ft | 323 kts | 72° |
| 2026-05-06 19:02 | 47.21276 | 15.25671 | 18014 ft | 328 kts | 50° |
| 2026-05-06 19:02 | 47.22763 | 15.28225 | 17919 ft | 329 kts | 49° |
| 2026-05-06 19:03 | 47.24263 | 15.30741 | 17826 ft | 325 kts | 49° |
| 2026-05-06 19:03 | 47.25747 | 15.33238 | 17854 ft | 325 kts | 49° |
| 2026-05-06 19:03 | 47.27233 | 15.35765 | 17845 ft | 327 kts | 49° |
| 2026-05-06 19:03 | 47.28711 | 15.38303 | 17840 ft | 326 kts | 50° |
| 2026-05-06 19:04 | 47.30176 | 15.40837 | 17828 ft | 322 kts | 50° |
| 2026-05-06 19:04 | 47.31648 | 15.43396 | 17858 ft | 336 kts | 50° |
| 2026-05-06 19:04 | 47.33186 | 15.46080 | 17862 ft | 349 kts | 50° |
| 2026-05-06 19:04 | 47.34756 | 15.48827 | 17839 ft | 348 kts | 50° |
| 2026-05-06 19:05 | 47.36308 | 15.51547 | 17829 ft | 345 kts | 50° |
| 2026-05-06 19:05 | 47.37840 | 15.54246 | 17848 ft | 342 kts | 50° |
| 2026-05-06 19:05 | 47.39368 | 15.56923 | 17822 ft | 341 kts | 50° |
| 2026-05-06 19:05 | 47.40893 | 15.59605 | 17828 ft | 339 kts | 50° |
| 2026-05-06 19:06 | 47.42406 | 15.62273 | 17833 ft | 340 kts | 50° |
| 2026-05-06 19:06 | 47.43939 | 15.64980 | 17824 ft | 345 kts | 50° |
| 2026-05-06 19:06 | 47.45480 | 15.67706 | 17824 ft | 345 kts | 50° |
| 2026-05-06 19:06 | 47.46995 | 15.70386 | 17823 ft | 344 kts | 50° |
| 2026-05-06 19:07 | 47.48527 | 15.73097 | 17818 ft | 343 kts | 50° |
| 2026-05-06 19:07 | 47.50057 | 15.75805 | 17820 ft | 343 kts | 50° |
| 2026-05-06 19:07 | 47.51584 | 15.78514 | 17823 ft | 344 kts | 50° |
| 2026-05-06 19:07 | 47.53130 | 15.81257 | 17548 ft | 349 kts | 50° |
| 2026-05-06 19:08 | 47.54689 | 15.84029 | 17013 ft | 351 kts | 51° |
| 2026-05-06 19:08 | 47.56238 | 15.86783 | 16672 ft | 344 kts | 51° |
| 2026-05-06 19:08 | 47.57750 | 15.89475 | 16353 ft | 336 kts | 51° |
| 2026-05-06 19:08 | 47.59237 | 15.92127 | 15890 ft | 332 kts | 51° |
| 2026-05-06 19:09 | 47.60698 | 15.94733 | 15538 ft | 324 kts | 50° |
| 2026-05-06 19:09 | 47.62127 | 15.97284 | 15099 ft | 321 kts | 51° |
| 2026-05-06 19:09 | 47.63554 | 15.99836 | 14588 ft | 322 kts | 51° |
| 2026-05-06 19:09 | 47.64975 | 16.02377 | 14148 ft | 319 kts | 51° |
| 2026-05-06 19:10 | 47.66384 | 16.04902 | 13733 ft | 316 kts | 51° |
| 2026-05-06 19:10 | 47.67784 | 16.07411 | 13197 ft | 316 kts | 51° |
| 2026-05-06 19:10 | 47.69174 | 16.09907 | 12836 ft | 310 kts | 51° |
| 2026-05-06 19:10 | 47.70533 | 16.12348 | 12569 ft | 304 kts | 51° |
| 2026-05-06 19:11 | 47.71877 | 16.14762 | 12301 ft | 302 kts | 51° |
| 2026-05-06 19:11 | 47.73220 | 16.17179 | 12079 ft | 303 kts | 51° |
| 2026-05-06 19:11 | 47.74583 | 16.19633 | 11865 ft | 316 kts | 52° |
| 2026-05-06 19:11 | 47.76003 | 16.22194 | 11819 ft | 326 kts | 51° |
| 2026-05-06 19:12 | 47.77383 | 16.24874 | 11775 ft | 328 kts | 59° |
| 2026-05-06 19:12 | 47.78558 | 16.27792 | 11788 ft | 329 kts | 63° |
| 2026-05-06 19:12 | 47.79671 | 16.30764 | 11768 ft | 327 kts | 63° |
| 2026-05-06 19:12 | 47.80761 | 16.33677 | 11576 ft | 327 kts | 63° |
| 2026-05-06 19:13 | 47.81878 | 16.36622 | 11334 ft | 328 kts | 62° |
| 2026-05-06 19:13 | 47.83015 | 16.39578 | 11088 ft | 329 kts | 62° |
| 2026-05-06 19:13 | 47.84161 | 16.42526 | 10855 ft | 328 kts | 62° |
| 2026-05-06 19:13 | 47.85299 | 16.45445 | 10607 ft | 324 kts | 62° |
| 2026-05-06 19:14 | 47.86424 | 16.48331 | 10374 ft | 321 kts | 62° |
| 2026-05-06 19:14 | 47.87539 | 16.51195 | 10134 ft | 319 kts | 62° |
| 2026-05-06 19:14 | 47.88639 | 16.54027 | 10026 ft | 315 kts | 61° |
| 2026-05-06 19:14 | 47.89751 | 16.56891 | 10010 ft | 320 kts | 61° |
| 2026-05-06 19:15 | 47.90863 | 16.59761 | 10007 ft | 319 kts | 61° |
| 2026-05-06 19:15 | 47.91972 | 16.62623 | 10004 ft | 318 kts | 61° |
| 2026-05-06 19:15 | 47.93079 | 16.65482 | 10008 ft | 318 kts | 61° |
| 2026-05-06 19:15 | 47.94185 | 16.68341 | 10006 ft | 318 kts | 61° |
| 2026-05-06 19:16 | 47.95284 | 16.71185 | 9984 ft | 313 kts | 61° |
| 2026-05-06 19:16 | 47.96350 | 16.73947 | 9980 ft | 300 kts | 62° |
| 2026-05-06 19:16 | 47.97367 | 16.76583 | 9985 ft | 288 kts | 62° |
| 2026-05-06 19:16 | 47.98373 | 16.79082 | 9979 ft | 282 kts | 53° |
| 2026-05-06 19:17 | 47.99860 | 16.80897 | 10012 ft | 277 kts | 21° |
| 2026-05-06 19:17 | 48.01721 | 16.81476 | 10014 ft | 273 kts | 354° |
| 2026-05-06 19:17 | 48.03519 | 16.80929 | 10001 ft | 259 kts | 331° |
| 2026-05-06 19:17 | 48.05106 | 16.79748 | 10007 ft | 253 kts | 326° |
| 2026-05-06 19:18 | 48.06658 | 16.78523 | 9998 ft | 252 kts | 326° |
| 2026-05-06 19:18 | 48.08214 | 16.77302 | 9980 ft | 251 kts | 327° |
| 2026-05-06 19:18 | 48.09759 | 16.76101 | 9821 ft | 250 kts | 327° |
| 2026-05-06 19:18 | 48.11306 | 16.74901 | 9528 ft | 250 kts | 327° |
| 2026-05-06 19:19 | 48.12852 | 16.73705 | 9234 ft | 251 kts | 327° |
| 2026-05-06 19:19 | 48.14402 | 16.72507 | 8957 ft | 251 kts | 327° |
| 2026-05-06 19:19 | 48.15954 | 16.71309 | 8699 ft | 250 kts | 327° |
| 2026-05-06 19:19 | 48.17494 | 16.70119 | 8440 ft | 249 kts | 327° |
| 2026-05-06 19:20 | 48.19036 | 16.68927 | 8191 ft | 248 kts | 326° |
| 2026-05-06 19:20 | 48.20569 | 16.67742 | 7946 ft | 247 kts | 326° |
| 2026-05-06 19:20 | 48.22098 | 16.66562 | 7692 ft | 247 kts | 327° |
| 2026-05-06 19:20 | 48.23728 | 16.65653 | 7425 ft | 252 kts | 339° |
| 2026-05-06 19:21 | 48.25421 | 16.64978 | 7186 ft | 252 kts | 340° |
| 2026-05-06 19:21 | 48.27117 | 16.64321 | 6935 ft | 252 kts | 339° |
| 2026-05-06 19:21 | 48.28803 | 16.63651 | 6712 ft | 251 kts | 339° |
| 2026-05-06 19:21 | 48.30485 | 16.62964 | 6507 ft | 249 kts | 339° |
| 2026-05-06 19:22 | 48.32154 | 16.62268 | 6262 ft | 249 kts | 339° |
| 2026-05-06 19:22 | 48.33818 | 16.61570 | 6047 ft | 249 kts | 339° |
| 2026-05-06 19:22 | 48.35500 | 16.60861 | 6022 ft | 253 kts | 339° |
| 2026-05-06 19:22 | 48.37180 | 16.60153 | 5992 ft | 253 kts | 339° |
| 2026-05-06 19:23 | 48.38873 | 16.59440 | 5982 ft | 251 kts | 339° |
| 2026-05-06 19:23 | 48.40546 | 16.58734 | 5986 ft | 249 kts | 339° |
| 2026-05-06 19:23 | 48.42206 | 16.58036 | 5959 ft | 244 kts | 340° |
| 2026-05-06 19:23 | 48.43830 | 16.57349 | 5710 ft | 242 kts | 340° |
| 2026-05-06 19:24 | 48.45384 | 16.56462 | 5461 ft | 234 kts | 320° |
| 2026-05-06 19:24 | 48.46527 | 16.54815 | 5257 ft | 225 kts | 306° |
| 2026-05-06 19:24 | 48.47461 | 16.52962 | 5046 ft | 218 kts | 290° |
| 2026-05-06 19:24 | 48.47670 | 16.50815 | 4982 ft | 200 kts | 256° |
| 2026-05-06 19:25 | 48.47134 | 16.49007 | 4968 ft | 183 kts | 226° |
| 2026-05-06 19:25 | 48.46050 | 16.48103 | 4997 ft | 183 kts | 198° |
| 2026-05-06 19:25 | 48.44794 | 16.47666 | 4982 ft | 185 kts | 195° |
| 2026-05-06 19:25 | 48.43541 | 16.47269 | 4982 ft | 183 kts | 195° |
| 2026-05-06 19:26 | 48.42324 | 16.46891 | 4973 ft | 179 kts | 195° |
| 2026-05-06 19:26 | 48.41105 | 16.46529 | 4961 ft | 178 kts | 195° |
| 2026-05-06 19:26 | 48.39891 | 16.46185 | 4965 ft | 178 kts | 189° |
| 2026-05-06 19:26 | 48.38643 | 16.46507 | 4999 ft | 188 kts | 167° |
| 2026-05-06 19:27 | 48.37381 | 16.47070 | 5000 ft | 190 kts | 169° |
| 2026-05-06 19:27 | 48.36097 | 16.47603 | 4992 ft | 191 kts | 170° |
| 2026-05-06 19:27 | 48.34816 | 16.48139 | 4983 ft | 190 kts | 170° |
| 2026-05-06 19:27 | 48.33545 | 16.48676 | 4882 ft | 192 kts | 170° |
| 2026-05-06 19:28 | 48.32253 | 16.49222 | 4657 ft | 192 kts | 170° |
| 2026-05-06 19:28 | 48.30978 | 16.49764 | 4403 ft | 187 kts | 171° |
| 2026-05-06 19:28 | 48.29753 | 16.50285 | 4166 ft | 180 kts | 171° |
| 2026-05-06 19:28 | 48.28551 | 16.50793 | 3936 ft | 179 kts | 171° |
| 2026-05-06 19:29 | 48.27369 | 16.51294 | 3695 ft | 173 kts | 172° |
| 2026-05-06 19:29 | 48.26243 | 16.51774 | 3461 ft | 164 kts | 172° |
| 2026-05-06 19:29 | 48.25165 | 16.52230 | 3252 ft | 159 kts | 172° |
| 2026-05-06 19:29 | 48.24108 | 16.52676 | 3050 ft | 157 kts | 172° |
| 2026-05-06 19:30 | 48.23053 | 16.53121 | 2841 ft | 159 kts | 172° |
| 2026-05-06 19:30 | 48.21993 | 16.53570 | 2630 ft | 157 kts | 171° |
| 2026-05-06 19:30 | 48.20950 | 16.54014 | 2418 ft | 153 kts | 171° |
| 2026-05-06 19:30 | 48.20287 | 16.54296 | 2300 ft | 144 kts | 171° |
| 2026-05-06 19:31 | 48.19381 | 16.54682 | 2107 ft | 128 kts | 171° |
| 2026-05-06 19:31 | 48.18538 | 16.55037 | 1931 ft | 127 kts | 171° |
| 2026-05-06 19:31 | 48.16526 | 16.55886 | 1558 ft | 129 kts | 169° |
| 2026-05-06 19:32 | 48.15941 | 16.56135 | 1428 ft | 130 kts | 168° |
| 2026-05-06 19:32 | 48.15056 | 16.56510 | 1267 ft | 133 kts | 166° |
| 2026-05-06 19:32 | 48.14153 | 16.56897 | 1082 ft | 137 kts | 166° |
| 2026-05-06 19:32 | 48.13230 | 16.57285 | 898 ft | 136 kts | 165° |
| 2026-05-06 19:33 | 48.12338 | 16.57656 | 741 ft | 130 kts | 163° |
| 2026-05-06 19:33 | 48.11484 | 16.58039 | 613 ft | 122 kts | 163° |
| 2026-05-06 19:33 | 48.10810 | 16.58319 | 608 ft | 79 kts | 165° |
| 2026-05-06 19:33 | 48.10441 | 16.58464 | 622 ft | 37 kts | 174° |
| 2026-05-06 19:34 | 48.10222 | 16.58438 | 616 ft | 23 kts | 192° |
| 2026-05-06 19:34 | 48.10134 | 16.58355 | 613 ft | 10 kts | 262° |
| 2026-05-06 19:34 | 48.10136 | 16.58332 | 609 ft | 0 kts | 287° |
| 2026-05-06 19:34 | 48.10132 | 16.58322 | 620 ft | 2 kts | 238° |
| 2026-05-06 19:35 | 48.10116 | 16.58286 | 608 ft | 5 kts | 237° |
| 2026-05-06 19:35 | 48.10106 | 16.58214 | 620 ft | 9 kts | 284° |
| 2026-05-06 19:35 | 48.10149 | 16.58171 | 612 ft | 4 kts | 343° |
| 2026-05-06 19:35 | 48.10157 | 16.58167 | 611 ft | 0 kts | 343° |
| 2026-05-06 19:39 | 48.10172 | 16.58161 | 610 ft | 6 kts | 343° |
| 2026-05-06 19:39 | 48.10222 | 16.58140 | 613 ft | 8 kts | 345° |
| 2026-05-06 19:39 | 48.10272 | 16.58120 | 615 ft | 7 kts | 344° |
| 2026-05-06 19:39 | 48.10306 | 16.58106 | 610 ft | 5 kts | 344° |
| 2026-05-06 19:40 | 48.10326 | 16.58097 | 617 ft | 2 kts | 344° |
| 2026-05-06 19:40 | 48.10332 | 16.58095 | 614 ft | 0 kts | 344° |
| 2026-05-06 19:41 | 48.10334 | 16.58094 | 613 ft | 1 kts | 344° |
| 2026-05-06 19:41 | 48.10357 | 16.58084 | 616 ft | 6 kts | 344° |
| 2026-05-06 19:41 | 48.10375 | 16.58076 | 610 ft | 0 kts | 344° |
| 2026-05-06 19:45 | 48.10382 | 16.58074 | 615 ft | 3 kts | 344° |
| 2026-05-06 19:45 | 48.10429 | 16.58054 | 616 ft | 8 kts | 344° |
| 2026-05-06 19:45 | 48.10483 | 16.58031 | 618 ft | 8 kts | 344° |
| 2026-05-06 19:46 | 48.10543 | 16.58006 | 612 ft | 11 kts | 344° |
| 2026-05-06 19:46 | 48.10644 | 16.57963 | 622 ft | 20 kts | 344° |
| 2026-05-06 19:46 | 48.10801 | 16.57896 | 618 ft | 26 kts | 344° |
| 2026-05-06 19:46 | 48.10972 | 16.57825 | 619 ft | 25 kts | 344° |
| 2026-05-06 19:47 | 48.11083 | 16.57658 | 619 ft | 23 kts | 295° |
| 2026-05-06 19:47 | 48.11151 | 16.57446 | 615 ft | 22 kts | 296° |
| 2026-05-06 19:47 | 48.11220 | 16.57241 | 618 ft | 22 kts | 296° |
| 2026-05-06 19:47 | 48.11286 | 16.57033 | 621 ft | 23 kts | 297° |
| 2026-05-06 19:48 | 48.11355 | 16.56826 | 611 ft | 22 kts | 296° |
| 2026-05-06 19:48 | 48.11421 | 16.56625 | 615 ft | 21 kts | 296° |
| 2026-05-06 19:48 | 48.11484 | 16.56427 | 616 ft | 21 kts | 295° |
| 2026-05-06 19:48 | 48.11544 | 16.56235 | 618 ft | 20 kts | 299° |
| 2026-05-06 19:49 | 48.11606 | 16.56054 | 619 ft | 20 kts | 295° |
| 2026-05-06 19:49 | 48.11671 | 16.55855 | 611 ft | 22 kts | 296° |
| 2026-05-06 19:49 | 48.11744 | 16.55631 | 613 ft | 26 kts | 296° |
| 2026-05-06 19:49 | 48.11817 | 16.55436 | 620 ft | 16 kts | 326° |
| 2026-05-06 19:50 | 48.11918 | 16.55442 | 609 ft | 12 kts | 15° |
| 2026-05-06 19:50 | 48.11977 | 16.55472 | 609 ft | 5 kts | 355° |
| 2026-05-06 19:50 | 48.12004 | 16.55456 | 610 ft | 6 kts | 337° |
| 2026-05-06 19:50 | 48.12056 | 16.55418 | 613 ft | 7 kts | 332° |
| 2026-05-06 19:51 | 48.12103 | 16.55411 | 609 ft | 7 kts | 350° |
| 2026-05-06 19:51 | 48.12128 | 16.55369 | 611 ft | 3 kts | 296° |
| 2026-05-06 19:51 | 48.12131 | 16.55358 | 612 ft | 0 kts | 296° |